Time;durP1;ratioP1;P1;durP2;ratioP2;P2;SDS_P1;SDS_P2;PMS_P1;PMS_P2;Temp;Humidity;BMP_temperature;BMP_pressure;BME280_temperature;BME280_humidity;BME280_pressure;Samples;Min_cycle;Max_cycle;Signal;HPM_P1;HPM_P2
2022/01/05 00:02:08;;;;;;;12.38;1.50;;;2.50;99.90;;;;;;5094383;28;20128;-68
2022/01/05 00:04:35;;;;;;;12.13;1.55;;;2.60;99.90;;;;;;5087575;28;20076;-67
2022/01/05 00:07:02;;;;;;;10.27;1.80;;;2.80;99.90;;;;;;5087119;28;20036;-66
2022/01/05 00:09:28;;;;;;;21.67;2.90;;;2.90;99.90;;;;;;5085085;28;20320;-69
2022/01/05 00:11:53;;;;;;;17.40;2.92;;;2.90;99.90;;;;;;5086473;28;20478;-69
2022/01/05 00:14:19;;;;;;;16.95;2.88;;;2.80;99.90;;;;;;5092194;28;20394;-67
2022/01/05 00:16:44;;;;;;;16.70;1.80;;;2.70;99.90;;;;;;5087653;28;20082;-68
2022/01/05 00:19:10;;;;;;;26.25;2.55;;;2.50;99.90;;;;;;5074867;28;20044;-68
2022/01/05 00:21:36;;;;;;;24.42;3.28;;;2.40;99.90;;;;;;5099229;28;20067;-68
2022/01/05 00:24:01;;;;;;;19.92;2.50;;;2.40;99.90;;;;;;5104908;28;20390;-68
2022/01/05 00:26:27;;;;;;;19.50;2.10;;;2.30;99.90;;;;;;5099662;28;20044;-68
2022/01/05 00:28:54;;;;;;;20.23;2.05;;;2.20;99.90;;;;;;5085956;28;20051;-68
2022/01/05 00:31:20;;;;;;;19.70;2.38;;;2.10;99.90;;;;;;5084798;28;20471;-68
2022/01/05 00:33:45;;;;;;;19.08;1.75;;;2.10;99.90;;;;;;5097521;28;20118;-68
2022/01/05 00:36:11;;;;;;;11.35;1.85;;;2.00;99.90;;;;;;5094588;28;20040;-67
2022/01/05 00:38:37;;;;;;;15.32;1.80;;;1.90;99.90;;;;;;5090330;28;20043;-68
2022/01/05 00:41:04;;;;;;;19.05;1.83;;;1.90;99.90;;;;;;5086142;28;20039;-67
2022/01/05 00:43:30;;;;;;;19.98;2.40;;;1.90;99.90;;;;;;5089168;28;20047;-68
2022/01/05 00:45:56;;;;;;;19.20;1.90;;;1.90;99.90;;;;;;5088215;28;20044;-67
2022/01/05 00:48:21;;;;;;;26.77;3.42;;;2.00;99.90;;;;;;5075508;28;20074;-67
2022/01/05 00:50:47;;;;;;;22.88;2.83;;;2.10;99.90;;;;;;5086506;28;20482;-67
2022/01/05 00:53:13;;;;;;;17.70;2.85;;;2.10;99.90;;;;;;5090711;28;20066;-68
2022/01/05 00:55:38;;;;;;;22.02;2.78;;;2.10;99.90;;;;;;5094263;28;20169;-68
2022/01/05 00:58:04;;;;;;;27.58;3.58;;;2.20;99.90;;;;;;5087389;28;20058;-68
2022/01/05 01:00:29;;;;;;;24.83;3.03;;;2.30;99.90;;;;;;5079543;28;20073;-67
2022/01/05 01:02:55;;;;;;;24.77;3.25;;;2.30;99.90;;;;;;5090382;28;20039;-67
2022/01/05 01:05:20;;;;;;;26.30;3.15;;;2.40;99.90;;;;;;5103800;28;20124;-69
2022/01/05 01:07:46;;;;;;;25.98;3.10;;;2.40;99.90;;;;;;5083566;28;20164;-68
2022/01/05 01:10:13;;;;;;;18.25;2.63;;;2.50;99.90;;;;;;5093945;28;20032;-67
2022/01/05 01:12:38;;;;;;;26.65;3.08;;;2.50;99.90;;;;;;5100581;28;20040;-67
2022/01/05 01:15:06;;;;;;;37.33;3.25;;;2.50;99.90;;;;;;5099314;28;20512;-69
2022/01/05 01:17:32;;;;;;;21.88;3.45;;;2.50;99.90;;;;;;5091326;28;20135;-69
2022/01/05 01:19:57;;;;;;;26.98;2.42;;;2.50;99.90;;;;;;5097286;28;20119;-69
2022/01/05 01:22:24;;;;;;;21.38;2.50;;;2.60;99.90;;;;;;5085412;28;20560;-68
2022/01/05 01:24:49;;;;;;;30.08;3.95;;;2.60;99.90;;;;;;5098130;28;20047;-68
2022/01/05 01:27:15;;;;;;;24.52;2.75;;;2.60;99.90;;;;;;5107772;28;20031;-68
2022/01/05 01:29:40;;;;;;;22.52;2.40;;;2.60;99.90;;;;;;5090144;28;20067;-68
2022/01/05 01:32:06;;;;;;;27.05;3.53;;;2.60;99.90;;;;;;5094263;28;20023;-68
2022/01/05 01:34:32;;;;;;;35.03;3.10;;;2.60;99.90;;;;;;5093221;28;20040;-67
2022/01/05 01:36:57;;;;;;;20.77;2.40;;;2.60;99.90;;;;;;5096535;28;20036;-68
2022/01/05 01:39:23;;;;;;;23.40;3.25;;;2.60;99.90;;;;;;5095320;28;20092;-67
2022/01/05 01:41:48;;;;;;;25.52;3.10;;;2.60;99.90;;;;;;5092497;28;20032;-66
2022/01/05 01:44:16;;;;;;;21.17;3.38;;;2.70;99.90;;;;;;5097834;28;20028;-67
2022/01/05 01:46:42;;;;;;;27.85;3.22;;;2.70;99.90;;;;;;5077010;28;20046;-67
2022/01/05 01:49:08;;;;;;;31.05;3.35;;;2.70;99.90;;;;;;5081069;28;20482;-67
2022/01/05 01:51:33;;;;;;;25.85;3.00;;;2.80;99.90;;;;;;5098609;28;20064;-68
2022/01/05 01:54:00;;;;;;;35.17;3.50;;;2.80;99.90;;;;;;5083995;28;20051;-68
2022/01/05 01:56:27;;;;;;;30.48;3.88;;;2.80;99.90;;;;;;5074715;28;20031;-68
2022/01/05 01:58:53;;;;;;;28.65;3.20;;;2.80;99.90;;;;;;5092613;28;20138;-67
2022/01/05 02:01:18;;;;;;;22.60;2.70;;;2.90;99.90;;;;;;5090589;28;20264;-68
2022/01/05 02:03:44;;;;;;;24.70;2.65;;;2.80;99.90;;;;;;5093232;28;20063;-67
2022/01/05 02:06:10;;;;;;;30.42;4.60;;;2.90;99.90;;;;;;5091734;28;20035;-68
2022/01/05 02:08:36;;;;;;;22.98;3.15;;;2.80;99.90;;;;;;5100724;28;20478;-67
2022/01/05 02:11:02;;;;;;;28.65;3.90;;;2.80;99.90;;;;;;5099355;28;20048;-67
2022/01/05 02:13:28;;;;;;;35.65;3.50;;;2.70;99.90;;;;;;5089506;28;20055;-68
2022/01/05 02:15:54;;;;;;;37.50;4.15;;;2.80;99.90;;;;;;5091792;28;20044;-67
2022/01/05 02:20:49;;;;;;;36.65;4.55;;;2.80;99.90;;;;;;5093227;28;20055;-67
2022/01/05 02:23:15;;;;;;;35.58;4.35;;;2.80;99.90;;;;;;5085615;28;20371;-68
2022/01/05 02:25:40;;;;;;;29.33;3.50;;;2.80;99.90;;;;;;5100222;28;20130;-67
2022/01/05 02:28:06;;;;;;;31.15;3.72;;;2.80;99.90;;;;;;5101870;28;20065;-68
2022/01/05 02:30:32;;;;;;;30.45;3.40;;;2.80;99.90;;;;;;5111660;27;20031;-67
2022/01/05 02:32:58;;;;;;;25.58;3.95;;;2.90;99.90;;;;;;5103950;28;20264;-65
2022/01/05 02:35:24;;;;;;;35.17;4.57;;;3.00;99.90;;;;;;5092550;28;20081;-66
2022/01/05 02:37:52;;;;;;;33.85;4.47;;;3.10;99.90;;;;;;5102181;28;20118;-67
2022/01/05 02:40:19;;;;;;;26.98;3.65;;;3.00;99.90;;;;;;5084861;28;20059;-68
2022/01/05 02:42:45;;;;;;;33.97;4.43;;;2.90;99.90;;;;;;5091014;28;20055;-68
2022/01/05 02:45:12;;;;;;;34.72;4.20;;;2.90;99.90;;;;;;5098935;28;20067;-69
2022/01/05 02:47:39;;;;;;;27.48;3.95;;;2.90;99.90;;;;;;5088473;28;20055;-67
2022/01/05 02:50:06;;;;;;;37.47;4.38;;;2.90;99.90;;;;;;5087542;28;20475;-66
2022/01/05 02:52:32;;;;;;;30.65;4.32;;;3.00;99.90;;;;;;5092448;28;20048;-67
2022/01/05 02:54:58;;;;;;;31.95;3.78;;;3.10;99.90;;;;;;5075156;28;20886;-67
2022/01/05 02:57:24;;;;;;;35.33;4.28;;;3.10;99.90;;;;;;5090400;28;20138;-68
2022/01/05 02:59:49;;;;;;;35.17;3.90;;;3.10;99.90;;;;;;5088617;28;20040;-67
2022/01/05 03:02:15;;;;;;;37.83;4.63;;;3.10;99.90;;;;;;5085550;28;20047;-68
2022/01/05 03:04:41;;;;;;;37.10;4.00;;;3.20;99.90;;;;;;5093560;28;20047;-67
2022/01/05 03:07:08;;;;;;;48.33;4.95;;;3.30;99.90;;;;;;5094619;28;20040;-68
2022/01/05 03:09:34;;;;;;;29.85;3.28;;;3.30;99.90;;;;;;5089912;28;20039;-68
2022/01/05 03:11:59;;;;;;;38.95;4.70;;;3.40;99.90;;;;;;5087234;28;20054;-68
2022/01/05 03:14:25;;;;;;;30.73;4.00;;;3.40;99.90;;;;;;5118309;27;20142;-69
2022/01/05 03:16:50;;;;;;;31.90;3.72;;;3.50;99.90;;;;;;5096172;28;20050;-68
2022/01/05 03:19:16;;;;;;;43.55;5.13;;;3.60;99.90;;;;;;5085720;28;20048;-69
2022/01/05 03:21:41;;;;;;;27.48;4.63;;;3.70;99.90;;;;;;5096403;28;20173;-68
2022/01/05 03:24:07;;;;;;;31.95;4.13;;;3.70;99.90;;;;;;5100762;28;20485;-68
2022/01/05 03:26:33;;;;;;;37.20;5.18;;;3.70;99.90;;;;;;5092983;28;20075;-69
2022/01/05 03:28:58;;;;;;;29.67;4.13;;;3.80;99.90;;;;;;5090263;28;20043;-67
2022/01/05 03:31:24;;;;;;;37.67;3.35;;;3.80;99.90;;;;;;5090619;28;20036;-68
2022/01/05 03:33:49;;;;;;;33.75;4.32;;;3.80;99.90;;;;;;5099762;28;20036;-67
2022/01/05 03:36:15;;;;;;;39.22;5.57;;;3.80;99.90;;;;;;5100317;28;20031;-69
2022/01/05 03:38:41;;;;;;;33.58;4.47;;;3.80;99.90;;;;;;5096356;28;20432;-66
2022/01/05 03:41:07;;;;;;;29.67;4.78;;;3.80;99.90;;;;;;5087071;28;20479;-67
2022/01/05 03:43:32;;;;;;;29.98;4.25;;;3.80;99.90;;;;;;5089951;28;20032;-70
2022/01/05 03:45:58;;;;;;;38.92;4.60;;;3.80;99.90;;;;;;5088822;28;20040;-68
2022/01/05 03:48:24;;;;;;;21.63;3.40;;;3.80;99.90;;;;;;5096661;28;20039;-69
2022/01/05 03:50:49;;;;;;;30.20;3.72;;;3.90;99.90;;;;;;5088931;28;20085;-68
2022/01/05 03:53:15;;;;;;;45.08;4.60;;;3.90;99.90;;;;;;5089249;28;20029;-67
2022/01/05 03:55:42;;;;;;;30.60;3.63;;;3.90;99.90;;;;;;5091442;28;20036;-68
2022/01/05 03:58:08;;;;;;;28.38;3.53;;;3.80;99.90;;;;;;5088181;28;20047;-67
2022/01/05 04:00:41;;;;;;;30.80;4.18;;;3.90;99.90;;;;;;5092351;28;20048;-68
2022/01/05 04:03:07;;;;;;;30.45;4.13;;;3.90;99.90;;;;;;5097386;28;20475;-68
2022/01/05 04:05:32;;;;;;;31.60;4.28;;;3.90;99.90;;;;;;5092258;28;20085;-68
2022/01/05 04:07:58;;;;;;;37.92;5.05;;;3.90;99.90;;;;;;5097646;28;20367;-68
2022/01/05 04:10:25;;;;;;;33.38;5.32;;;3.80;99.90;;;;;;5074124;28;20044;-67
2022/01/05 04:12:51;;;;;;;29.48;3.92;;;3.90;99.90;;;;;;5091637;28;20043;-69
2022/01/05 04:15:17;;;;;;;34.03;3.47;;;3.90;99.90;;;;;;5083586;28;20127;-67
2022/01/05 04:17:43;;;;;;;27.83;3.42;;;3.90;99.90;;;;;;5081343;28;20078;-68
2022/01/05 04:20:10;;;;;;;20.58;3.65;;;4.00;99.90;;;;;;5086680;28;20040;-67
2022/01/05 04:22:36;;;;;;;33.17;4.55;;;4.00;99.90;;;;;;5091060;28;20097;-67
2022/01/05 04:25:02;;;;;;;28.55;4.00;;;4.10;99.90;;;;;;5087218;28;20401;-68
2022/01/05 04:27:27;;;;;;;33.72;4.63;;;4.10;99.90;;;;;;5082312;28;20040;-66
2022/01/05 04:29:53;;;;;;;23.83;3.70;;;4.00;99.90;;;;;;5080958;28;20082;-68
2022/01/05 04:32:19;;;;;;;33.65;4.90;;;4.10;99.90;;;;;;5095321;28;20040;-69
2022/01/05 04:34:44;;;;;;;31.40;4.32;;;4.10;99.90;;;;;;5083535;28;20040;-67
2022/01/05 04:37:10;;;;;;;29.88;4.10;;;4.20;99.90;;;;;;5099561;28;20478;-68
2022/01/05 04:39:36;;;;;;;29.70;4.57;;;4.20;99.90;;;;;;5087233;28;20040;-66
2022/01/05 04:42:02;;;;;;;31.83;3.75;;;4.30;99.90;;;;;;5101928;28;20059;-68
2022/01/05 04:44:28;;;;;;;26.85;3.00;;;4.30;99.90;;;;;;5099035;28;20449;-68
2022/01/05 04:46:54;;;;;;;28.98;3.47;;;4.40;99.90;;;;;;5089598;28;20058;-68
2022/01/05 04:49:19;;;;;;;37.65;4.47;;;4.30;99.90;;;;;;5085707;28;20033;-68
2022/01/05 04:51:45;;;;;;;47.00;5.10;;;4.20;99.90;;;;;;5088022;28;20148;-67
2022/01/05 04:54:11;;;;;;;29.30;4.57;;;4.20;99.90;;;;;;5088715;28;20406;-68
2022/01/05 04:56:36;;;;;;;40.45;4.20;;;4.10;99.90;;;;;;5088848;28;20028;-68
2022/01/05 04:59:02;;;;;;;37.40;5.00;;;4.10;99.90;;;;;;5087443;28;20122;-70
2022/01/05 05:01:28;;;;;;;25.08;3.10;;;4.10;99.90;;;;;;5086591;28;20051;-66
2022/01/05 05:03:53;;;;;;;33.25;4.22;;;4.10;99.90;;;;;;5087055;28;20028;-69
2022/01/05 05:06:19;;;;;;;24.35;2.92;;;4.20;99.90;;;;;;5087981;28;20473;-68
2022/01/05 05:08:45;;;;;;;26.15;3.38;;;4.20;99.90;;;;;;5096752;28;20055;-68
2022/01/05 05:11:10;;;;;;;19.67;2.45;;;4.30;99.90;;;;;;5086418;28;20051;-68
2022/01/05 05:13:36;;;;;;;27.65;4.03;;;4.40;99.90;;;;;;5091904;28;20036;-67
2022/01/05 05:16:02;;;;;;;18.92;3.42;;;4.40;99.90;;;;;;5085597;28;20114;-67
2022/01/05 05:18:27;;;;;;;28.15;3.28;;;4.50;99.90;;;;;;5102632;28;20470;-67
2022/01/05 05:20:53;;;;;;;24.13;3.00;;;4.50;99.90;;;;;;5090328;28;20422;-66
2022/01/05 05:23:19;;;;;;;27.15;3.42;;;4.60;99.90;;;;;;5098787;28;20062;-69
2022/01/05 05:25:44;;;;;;;25.15;2.47;;;4.60;99.90;;;;;;5087681;28;20052;-68
2022/01/05 05:28:10;;;;;;;24.75;3.22;;;4.60;99.90;;;;;;5086730;28;20032;-69
2022/01/05 05:30:36;;;;;;;26.50;2.53;;;4.70;99.90;;;;;;5089733;28;20478;-68
2022/01/05 05:33:03;;;;;;;30.35;4.40;;;4.70;99.90;;;;;;5073945;28;20140;-67
2022/01/05 05:35:28;;;;;;;25.63;5.30;;;4.70;99.90;;;;;;5094815;28;20036;-68
2022/01/05 05:37:55;;;;;;;30.02;3.53;;;4.60;99.90;;;;;;5100491;28;20085;-68
2022/01/05 05:40:21;;;;;;;29.15;3.03;;;4.60;99.90;;;;;;5095062;28;20043;-69
2022/01/05 05:42:47;;;;;;;27.08;4.15;;;4.60;99.90;;;;;;5094027;28;20509;-69
2022/01/05 05:45:13;;;;;;;28.65;3.72;;;4.80;99.90;;;;;;5088802;28;20130;-68
2022/01/05 05:47:39;;;;;;;39.35;4.15;;;4.80;99.90;;;;;;5093441;28;20127;-68
2022/01/05 05:50:05;;;;;;;30.20;4.13;;;4.80;99.90;;;;;;5093206;28;20064;-68
2022/01/05 05:52:30;;;;;;;31.23;4.25;;;4.80;99.90;;;;;;5090207;28;20028;-67
2022/01/05 05:54:56;;;;;;;18.35;2.67;;;4.80;99.90;;;;;;5096189;28;20061;-68
2022/01/05 05:57:22;;;;;;;28.00;3.83;;;4.90;99.90;;;;;;5095735;28;20036;-67
2022/01/05 05:59:47;;;;;;;34.33;3.63;;;5.00;99.90;;;;;;5096937;28;20040;-68
2022/01/05 06:02:13;;;;;;;38.47;3.03;;;4.90;99.90;;;;;;5099559;28;20040;-69
2022/01/05 06:04:38;;;;;;;30.00;3.30;;;5.00;99.90;;;;;;5094207;28;20387;-68
2022/01/05 06:07:04;;;;;;;33.38;3.72;;;4.90;99.90;;;;;;5095505;28;20071;-67
2022/01/05 06:09:29;;;;;;;37.20;3.45;;;4.80;99.90;;;;;;5078459;28;20031;-66
2022/01/05 06:11:55;;;;;;;26.77;3.45;;;4.70;99.90;;;;;;5097163;28;20036;-68
2022/01/05 06:14:20;;;;;;;22.98;3.22;;;4.70;99.90;;;;;;5095284;27;20040;-69
2022/01/05 06:16:46;;;;;;;32.72;4.03;;;4.70;99.90;;;;;;5102024;28;20044;-68
2022/01/05 06:19:11;;;;;;;22.95;3.22;;;4.60;99.90;;;;;;5077979;28;20043;-69
2022/01/05 06:21:37;;;;;;;35.80;4.55;;;4.60;99.90;;;;;;5092005;28;20504;-69
2022/01/05 06:24:03;;;;;;;35.65;4.47;;;4.50;99.90;;;;;;5092712;28;20064;-70
2022/01/05 06:26:29;;;;;;;31.42;4.10;;;4.50;99.90;;;;;;5098250;28;20047;-70
2022/01/05 06:28:54;;;;;;;42.03;4.30;;;4.50;99.90;;;;;;5093455;28;20390;-69
2022/01/05 06:31:20;;;;;;;19.27;3.33;;;4.50;99.90;;;;;;5094556;28;20387;-68
2022/01/05 06:33:45;;;;;;;40.38;4.07;;;4.50;99.90;;;;;;5085098;28;20055;-68
2022/01/05 06:36:11;;;;;;;34.90;4.03;;;4.40;99.90;;;;;;5076043;28;20055;-69
2022/01/05 06:38:36;;;;;;;29.73;3.53;;;4.40;99.90;;;;;;5091665;28;20040;-69
2022/01/05 06:41:02;;;;;;;36.72;4.85;;;4.30;99.90;;;;;;5092650;28;20517;-68
2022/01/05 06:43:30;;;;;;;43.30;3.72;;;4.20;99.90;;;;;;5087132;28;20048;-68
2022/01/05 06:45:56;;;;;;;38.00;4.13;;;4.20;99.90;;;;;;5087031;28;20055;-67
2022/01/05 06:48:22;;;;;;;40.28;4.50;;;4.20;99.90;;;;;;5091298;28;20028;-70
2022/01/05 06:50:47;;;;;;;30.45;4.40;;;4.20;99.90;;;;;;5086513;28;20118;-69
2022/01/05 06:53:14;;;;;;;37.05;4.10;;;4.20;99.90;;;;;;5089041;28;20490;-68
2022/01/05 06:55:40;;;;;;;29.00;3.80;;;4.20;99.90;;;;;;5089374;28;20486;-69
2022/01/05 06:58:05;;;;;;;18.40;2.17;;;4.10;99.90;;;;;;5086787;28;20028;-71
2022/01/05 07:00:31;;;;;;;15.90;2.25;;;4.10;99.90;;;;;;5088375;28;20055;-67
2022/01/05 07:02:57;;;;;;;26.08;3.17;;;4.00;99.90;;;;;;5090590;28;20317;-68
2022/01/05 07:05:23;;;;;;;37.25;3.50;;;4.00;99.90;;;;;;5070775;28;20032;-71
2022/01/05 07:07:49;;;;;;;27.75;4.03;;;4.00;99.90;;;;;;5088759;28;20085;-69
2022/01/05 07:10:15;;;;;;;28.48;3.80;;;4.00;99.90;;;;;;5088814;28;20486;-71
2022/01/05 07:12:41;;;;;;;34.40;3.85;;;4.00;99.90;;;;;;5088688;28;20040;-69
2022/01/05 07:15:07;;;;;;;34.35;3.72;;;4.00;99.90;;;;;;5072271;28;20043;-69
2022/01/05 07:17:33;;;;;;;43.30;4.60;;;4.00;99.90;;;;;;5085955;28;20093;-73
2022/01/05 07:19:59;;;;;;;42.15;5.43;;;4.00;99.90;;;;;;5107803;28;20036;-69
2022/01/05 07:22:24;;;;;;;39.00;5.60;;;4.00;99.90;;;;;;5088969;28;20035;-67
2022/01/05 07:24:50;;;;;;;30.70;5.45;;;4.00;99.90;;;;;;5084529;28;20090;-73
2022/01/05 07:27:16;;;;;;;27.38;2.65;;;4.10;99.90;;;;;;5098609;28;20035;-72
2022/01/05 07:29:42;;;;;;;28.17;3.80;;;4.10;99.90;;;;;;5096528;28;20044;-70
2022/01/05 07:32:08;;;;;;;26.08;3.42;;;4.20;99.90;;;;;;5084270;28;20033;-71
2022/01/05 07:34:33;;;;;;;29.00;2.67;;;4.30;99.90;;;;;;5094448;28;20118;-71
2022/01/05 07:36:59;;;;;;;42.08;5.65;;;4.40;99.90;;;;;;5090131;28;20051;-70
2022/01/05 07:39:24;;;;;;;26.48;2.88;;;4.40;99.90;;;;;;5071065;28;20720;-69
2022/01/05 07:41:50;;;;;;;35.38;4.22;;;4.50;99.90;;;;;;5085034;28;20675;-71
2022/01/05 07:44:16;;;;;;;28.48;3.63;;;4.60;99.90;;;;;;5095878;28;20131;-71
2022/01/05 07:46:41;;;;;;;30.42;4.78;;;4.60;99.90;;;;;;5098011;28;20406;-71
2022/01/05 07:49:07;;;;;;;30.17;3.33;;;4.70;99.90;;;;;;5087373;28;20032;-70
2022/01/05 07:51:33;;;;;;;21.00;2.55;;;4.80;99.90;;;;;;5087962;28;20407;-72
2022/01/05 07:54:00;;;;;;;22.52;2.38;;;4.80;99.90;;;;;;5089449;28;20036;-69
2022/01/05 07:56:26;;;;;;;14.77;2.47;;;4.90;99.90;;;;;;5087593;28;20447;-70
2022/01/05 07:58:52;;;;;;;28.10;3.85;;;5.00;99.90;;;;;;5099251;28;20044;-68
2022/01/05 08:01:18;;;;;;;30.85;2.95;;;5.00;99.90;;;;;;5084284;28;20118;-68
2022/01/05 08:03:48;;;;;;;16.83;2.63;;;5.00;99.90;;;;;;5085071;28;20411;-70
2022/01/05 08:06:14;;;;;;;31.15;3.53;;;5.00;99.90;;;;;;5088892;28;20036;-68
2022/01/05 08:08:40;;;;;;;21.30;2.97;;;5.00;99.90;;;;;;5090486;28;20060;-69
2022/01/05 08:11:06;;;;;;;26.63;3.05;;;5.00;99.90;;;;;;5084992;28;20790;-69
2022/01/05 08:13:31;;;;;;;26.50;3.38;;;5.00;99.90;;;;;;5088308;28;20070;-70
2022/01/05 08:15:57;;;;;;;31.77;3.60;;;5.10;99.90;;;;;;5104185;28;20044;-69
2022/01/05 08:18:22;;;;;;;30.98;3.25;;;5.10;99.90;;;;;;5090673;28;20439;-68
2022/01/05 08:20:48;;;;;;;26.05;3.10;;;5.00;99.90;;;;;;5092951;28;20051;-72
2022/01/05 08:23:18;;;;;;;26.13;2.60;;;4.90;99.90;;;;;;5091069;28;20090;-72
2022/01/05 08:25:45;;;;;;;37.60;3.63;;;5.00;99.90;;;;;;5086316;28;20043;-69
2022/01/05 08:28:11;;;;;;;27.70;3.00;;;5.00;99.90;;;;;;5086955;28;20115;-68
2022/01/05 08:30:37;;;;;;;39.22;3.85;;;5.10;99.90;;;;;;5085974;28;20044;-70
2022/01/05 08:33:03;;;;;;;22.80;3.38;;;5.20;99.90;;;;;;5088601;28;20387;-71
2022/01/05 08:35:30;;;;;;;24.05;2.67;;;5.30;99.90;;;;;;5075315;28;20486;-75
2022/01/05 08:37:56;;;;;;;20.60;2.65;;;5.30;99.90;;;;;;5097071;28;20376;-72
2022/01/05 08:40:24;;;;;;;29.50;4.35;;;5.30;99.90;;;;;;5096361;28;20040;-70
2022/01/05 08:42:50;;;;;;;26.38;3.53;;;5.30;99.90;;;;;;5099421;28;20043;-73
2022/01/05 08:45:17;;;;;;;18.05;3.47;;;5.30;99.90;;;;;;5090931;28;20032;-60
2022/01/05 08:47:47;;;;;;;17.08;2.83;;;5.40;99.90;;;;;;5087949;28;20078;-71
2022/01/05 08:50:17;;;;;;;22.70;3.40;;;5.40;99.90;;;;;;5090023;28;20386;-73
2022/01/05 08:52:43;;;;;;;14.77;2.55;;;5.40;99.90;;;;;;5083682;28;20036;-70
2022/01/05 08:55:09;;;;;;;12.68;2.10;;;5.40;99.90;;;;;;5083018;28;20048;-69
2022/01/05 08:57:35;;;;;;;18.90;2.95;;;5.40;99.90;;;;;;5087809;28;20047;-68
2022/01/05 09:00:01;;;;;;;18.80;3.40;;;5.30;99.90;;;;;;5089822;28;20043;-72
2022/01/05 09:02:28;;;;;;;31.60;3.70;;;5.30;99.90;;;;;;5085571;28;20036;-69
2022/01/05 09:04:53;;;;;;;23.45;3.53;;;5.30;99.90;;;;;;5093652;28;20405;-69
2022/01/05 09:07:19;;;;;;;20.40;2.60;;;5.40;99.90;;;;;;5092168;28;20040;-69
2022/01/05 09:09:45;;;;;;;35.08;3.47;;;5.40;99.90;;;;;;5088373;28;20082;-70
2022/01/05 09:12:11;;;;;;;13.73;2.70;;;5.50;99.90;;;;;;5097790;28;20032;-76
2022/01/05 09:14:38;;;;;;;21.50;2.65;;;5.50;99.90;;;;;;5080563;28;20041;-73
2022/01/05 09:17:04;;;;;;;14.45;2.70;;;5.50;99.90;;;;;;5090189;28;20040;-73
2022/01/05 09:19:30;;;;;;;20.45;2.40;;;5.50;99.90;;;;;;5089999;28;20440;-72
2022/01/05 09:21:56;;;;;;;19.15;2.25;;;5.60;99.90;;;;;;5089297;28;20036;-72
2022/01/05 09:24:21;;;;;;;9.70;2.00;;;5.60;99.90;;;;;;5071708;28;20090;-76
2022/01/05 09:26:47;;;;;;;21.00;1.83;;;5.60;99.90;;;;;;5074120;28;20041;-71
2022/01/05 09:29:12;;;;;;;14.90;2.80;;;5.50;99.90;;;;;;5089222;28;20389;-74
2022/01/05 09:31:38;;;;;;;29.73;2.85;;;5.50;99.90;;;;;;5089787;28;20542;-75
2022/01/05 09:34:05;;;;;;;16.77;2.55;;;5.50;99.90;;;;;;5073525;28;20032;-73
2022/01/05 09:36:35;;;;;;;28.45;2.13;;;5.60;99.90;;;;;;5072509;28;20079;-72
2022/01/05 09:41:57;;;;;;;15.80;2.15;;;5.60;99.90;;;;;;5088553;28;20185;-73
2022/01/05 09:44:33;;;;;;;26.98;3.05;;;5.60;99.90;;;;;;5101881;28;20032;-69
2022/01/05 09:47:31;;;;;;;21.92;2.35;;;5.70;99.90;;;;;;5088463;28;20071;-76
2022/01/05 09:50:07;;;;;;;23.08;2.90;;;5.70;99.90;;;;;;5090036;28;20398;-75
2022/01/05 09:52:38;;;;;;;25.25;2.63;;;5.70;99.90;;;;;;5088195;28;20057;-74
2022/01/05 09:55:05;;;;;;;32.22;3.00;;;5.70;99.90;;;;;;5093355;28;20032;-69
2022/01/05 09:57:32;;;;;;;33.08;2.95;;;5.80;99.90;;;;;;5062969;28;20044;-71
2022/01/05 09:59:58;;;;;;;22.50;2.17;;;5.80;99.90;;;;;;5068363;28;20044;-70
2022/01/05 10:02:24;;;;;;;16.75;1.92;;;5.80;99.90;;;;;;5090324;28;20055;-71
2022/01/05 10:04:50;;;;;;;21.73;2.63;;;5.80;99.90;;;;;;5087088;28;20061;-73
2022/01/05 10:07:18;;;;;;;22.00;2.20;;;5.80;99.90;;;;;;5090489;28;20534;-76
2022/01/05 10:09:44;;;;;;;16.08;2.30;;;5.80;99.90;;;;;;5088075;28;20040;-73
2022/01/05 10:12:11;;;;;;;34.03;3.10;;;5.80;99.90;;;;;;5076158;28;20427;-72
2022/01/05 10:14:41;;;;;;;16.80;2.17;;;5.90;99.90;;;;;;5076482;28;20041;-71
2022/01/05 10:17:14;;;;;;;22.85;2.92;;;5.90;99.90;;;;;;5097869;28;20040;-76
2022/01/05 10:19:40;;;;;;;23.80;2.83;;;5.90;99.90;;;;;;5063699;28;20071;-74
2022/01/05 10:22:36;;;;;;;26.15;2.70;;;6.10;99.90;;;;;;5088759;28;20089;-74
2022/01/05 10:25:05;;;;;;;30.83;2.83;;;6.10;99.90;;;;;;5079411;28;20043;-69
2022/01/05 10:27:31;;;;;;;20.48;2.80;;;6.10;99.90;;;;;;5072061;28;20116;-74
2022/01/05 10:30:04;;;;;;;22.98;3.20;;;6.20;99.90;;;;;;5090450;28;20425;-68
2022/01/05 10:32:33;;;;;;;20.40;2.45;;;6.20;99.90;;;;;;5101903;28;20032;-73
2022/01/05 10:35:10;;;;;;;19.08;2.45;;;6.30;99.90;;;;;;5093531;28;20035;-72
2022/01/05 10:37:39;;;;;;;18.35;2.33;;;6.30;99.90;;;;;;5092300;28;20119;-71
2022/01/05 10:40:20;;;;;;;20.08;3.03;;;6.40;99.90;;;;;;5076719;28;20044;-74
2022/01/05 10:42:52;;;;;;;17.45;1.95;;;6.30;99.90;;;;;;5100322;28;20036;-70
2022/01/05 10:45:22;;;;;;;24.30;3.25;;;6.40;99.90;;;;;;5098718;28;20059;-72
2022/01/05 10:48:06;;;;;;;15.10;1.77;;;6.40;99.90;;;;;;5089832;28;20411;-72
2022/01/05 10:50:32;;;;;;;13.93;2.17;;;6.40;99.90;;;;;;5073713;28;20047;-74
2022/01/05 10:52:58;;;;;;;27.00;2.80;;;6.30;99.90;;;;;;5056651;28;20067;-73
2022/01/05 10:55:27;;;;;;;13.15;2.58;;;6.30;99.90;;;;;;5079079;28;20398;-78
2022/01/05 10:58:03;;;;;;;28.63;2.45;;;6.30;99.90;;;;;;5077441;28;20100;-75
2022/01/05 11:00:33;;;;;;;29.75;3.67;;;6.30;99.90;;;;;;5079153;28;20051;-77
2022/01/05 11:02:59;;;;;;;20.60;3.20;;;6.40;99.90;;;;;;5078199;28;20126;-70
2022/01/05 11:05:24;;;;;;;24.83;2.45;;;6.50;99.90;;;;;;5092257;28;20074;-68
2022/01/05 11:07:50;;;;;;;33.10;3.88;;;6.50;99.90;;;;;;5091831;28;20079;-73
2022/01/05 11:10:18;;;;;;;32.65;3.65;;;6.60;99.90;;;;;;5090757;28;20090;-74
2022/01/05 11:12:51;;;;;;;29.05;3.75;;;6.70;99.90;;;;;;5091793;28;20040;-67
2022/01/05 11:15:30;;;;;;;18.48;2.63;;;6.80;99.90;;;;;;5090882;28;20068;-71
2022/01/05 11:18:11;;;;;;;28.77;3.17;;;6.70;99.90;;;;;;5109172;28;20040;-77
2022/01/05 11:20:50;;;;;;;22.50;2.50;;;6.80;99.90;;;;;;5081851;28;20164;-70
2022/01/05 11:23:20;;;;;;;20.90;3.08;;;6.90;99.90;;;;;;5100101;28;20041;-76
2022/01/05 11:25:47;;;;;;;24.02;3.38;;;6.90;99.90;;;;;;5093122;28;20138;-66
2022/01/05 11:28:14;;;;;;;31.75;3.03;;;7.00;99.90;;;;;;5091946;28;20386;-66
2022/01/05 11:30:42;;;;;;;22.02;3.60;;;7.10;99.90;;;;;;5072329;28;20044;-70
2022/01/05 11:33:09;;;;;;;20.70;2.00;;;7.20;99.90;;;;;;5084260;28;20044;-76
2022/01/05 11:35:35;;;;;;;23.42;3.17;;;7.20;99.90;;;;;;5088082;28;20036;-71
2022/01/05 11:38:03;;;;;;;20.15;2.60;;;7.10;99.90;;;;;;5088256;28;20168;-74
2022/01/05 11:40:30;;;;;;;19.05;2.15;;;7.10;99.90;;;;;;5104009;28;20089;-76
2022/01/05 11:43:09;;;;;;;18.40;2.38;;;7.10;99.90;;;;;;5088601;28;20094;-69
2022/01/05 11:45:39;;;;;;;14.73;2.05;;;7.20;99.90;;;;;;5087120;28;20066;-77
2022/01/05 11:48:23;;;;;;;27.88;3.35;;;7.20;99.90;;;;;;5104752;28;20410;-68
2022/01/05 11:50:56;;;;;;;26.02;3.22;;;7.20;99.90;;;;;;5093929;28;20044;-69
2022/01/05 11:53:45;;;;;;;23.48;3.00;;;7.10;99.90;;;;;;5073560;28;20109;-71
2022/01/05 11:56:12;;;;;;;25.48;2.70;;;7.20;99.90;;;;;;5097727;28;20623;-73
2022/01/05 11:58:56;;;;;;;23.92;2.63;;;7.20;99.90;;;;;;5073759;28;20079;-74
2022/01/05 12:01:28;;;;;;;16.67;2.95;;;7.30;99.90;;;;;;5085161;28;20444;-72
2022/01/05 12:03:57;;;;;;;28.27;2.80;;;7.30;99.90;;;;;;5075955;28;20048;-67
2022/01/05 12:06:26;;;;;;;27.17;3.58;;;7.30;99.90;;;;;;5089877;28;20379;-72
2022/01/05 12:08:53;;;;;;;34.75;3.63;;;7.20;99.90;;;;;;5064152;28;20032;-70
2022/01/05 12:11:40;;;;;;;17.50;2.53;;;7.20;99.90;;;;;;5091427;28;20044;-75
2022/01/05 12:14:27;;;;;;;28.42;3.05;;;7.20;99.90;;;;;;5091030;28;20039;-75
2022/01/05 12:16:58;;;;;;;26.65;2.22;;;7.20;99.90;;;;;;5069514;28;20156;-72
2022/01/05 12:19:25;;;;;;;25.45;2.83;;;7.10;99.90;;;;;;5085533;28;20044;-72
2022/01/05 12:21:54;;;;;;;24.92;3.63;;;7.10;99.90;;;;;;5090361;28;20051;-75
2022/01/05 12:24:21;;;;;;;28.20;3.20;;;7.00;99.90;;;;;;5088862;28;20071;-68
2022/01/05 12:27:18;;;;;;;17.38;1.92;;;6.90;99.90;;;;;;5090636;28;20491;-68
2022/01/05 12:29:46;;;;;;;14.30;1.90;;;6.80;99.90;;;;;;5090347;28;20071;-72
2022/01/05 12:32:29;;;;;;;17.75;1.77;;;6.80;99.90;;;;;;5088968;28;20119;-74
2022/01/05 12:35:01;;;;;;;14.13;1.30;;;6.90;99.90;;;;;;5105699;28;20475;-73
2022/01/05 12:37:51;;;;;;;22.90;1.73;;;6.90;99.90;;;;;;5070662;28;20129;-72
2022/01/05 12:40:36;;;;;;;13.70;1.52;;;6.90;99.90;;;;;;5096519;28;20046;-72
2022/01/05 12:43:08;;;;;;;10.70;1.38;;;7.00;99.90;;;;;;5093494;28;20062;-71
2022/01/05 12:45:53;;;;;;;13.50;1.40;;;7.00;99.90;;;;;;5082234;28;20044;-73
2022/01/05 12:48:33;;;;;;;10.57;1.55;;;7.00;99.90;;;;;;5091137;28;20051;-74
2022/01/05 12:51:11;;;;;;;13.98;2.30;;;7.10;99.90;;;;;;5082527;28;20537;-72
2022/01/05 12:54:06;;;;;;;13.50;2.60;;;7.20;99.90;;;;;;5081548;28;20502;-67
2022/01/05 12:56:33;;;;;;;25.83;2.67;;;7.20;99.90;;;;;;5080780;28;20435;-74